sensor_id;sensor_type;location;lat;lon;timestamp;pressure;altitude;pressure_sealevel;temperature;humidity
43707;BME280;61348;53.392;-6.248;2023-12-28T00:01:23;97998.38;;;6.09;100.00
43707;BME280;61348;53.392;-6.248;2023-12-28T00:03:50;98008.19;;;6.10;100.00
43707;BME280;61348;53.392;-6.248;2023-12-28T00:06:18;98021.94;;;6.10;100.00
43707;BME280;61348;53.392;-6.248;2023-12-28T00:08:45;98037.25;;;6.11;100.00
43707;BME280;61348;53.392;-6.248;2023-12-28T00:11:26;98045.50;;;6.15;100.00
43707;BME280;61348;53.392;-6.248;2023-12-28T00:13:53;98049.06;;;6.19;100.00
43707;BME280;61348;53.392;-6.248;2023-12-28T00:16:21;98075.00;;;6.25;100.00
43707;BME280;61348;53.392;-6.248;2023-12-28T00:18:48;98081.69;;;6.28;100.00
43707;BME280;61348;53.392;-6.248;2023-12-28T00:21:15;98104.47;;;6.28;100.00
43707;BME280;61348;53.392;-6.248;2023-12-28T00:23:43;98117.00;;;6.26;100.00
43707;BME280;61348;53.392;-6.248;2023-12-28T00:26:10;98136.63;;;6.24;100.00
43707;BME280;61348;53.392;-6.248;2023-12-28T00:28:37;98150.78;;;6.26;100.00
43707;BME280;61348;53.392;-6.248;2023-12-28T00:31:05;98157.44;;;6.25;100.00
43707;BME280;61348;53.392;-6.248;2023-12-28T00:33:32;98167.25;;;6.26;100.00
43707;BME280;61348;53.392;-6.248;2023-12-28T00:36:00;98193.13;;;6.25;100.00
43707;BME280;61348;53.392;-6.248;2023-12-28T00:38:28;98194.31;;;6.24;100.00
43707;BME280;61348;53.392;-6.248;2023-12-28T00:40:55;98205.69;;;6.23;100.00
43707;BME280;61348;53.392;-6.248;2023-12-28T00:43:22;98225.69;;;6.23;100.00
43707;BME280;61348;53.392;-6.248;2023-12-28T00:45:50;98250.44;;;6.23;100.00
43707;BME280;61348;53.392;-6.248;2023-12-28T00:48:17;98247.69;;;6.23;100.00
43707;BME280;61348;53.392;-6.248;2023-12-28T00:50:44;98263.75;;;6.21;100.00
43707;BME280;61348;53.392;-6.248;2023-12-28T00:53:12;98266.84;;;6.16;100.00
43707;BME280;61348;53.392;-6.248;2023-12-28T00:55:39;98294.28;;;6.12;100.00
43707;BME280;61348;53.392;-6.248;2023-12-28T00:58:06;98298.56;;;6.10;100.00
43707;BME280;61348;53.392;-6.248;2023-12-28T01:00:34;98314.97;;;6.06;100.00
43707;BME280;61348;53.392;-6.248;2023-12-28T01:03:01;98317.72;;;6.06;100.00
43707;BME280;61348;53.392;-6.248;2023-12-28T01:05:29;98326.34;;;6.05;100.00
43707;BME280;61348;53.392;-6.248;2023-12-28T01:07:59;98351.91;;;6.09;100.00
43707;BME280;61348;53.392;-6.248;2023-12-28T01:10:27;98342.50;;;6.10;100.00
43707;BME280;61348;53.392;-6.248;2023-12-28T01:12:54;98371.91;;;6.06;100.00
43707;BME280;61348;53.392;-6.248;2023-12-28T01:15:21;98369.16;;;6.06;100.00
43707;BME280;61348;53.392;-6.248;2023-12-28T01:17:49;98378.22;;;6.10;100.00
43707;BME280;61348;53.392;-6.248;2023-12-28T01:20:16;98385.72;;;6.13;100.00
43707;BME280;61348;53.392;-6.248;2023-12-28T01:22:44;98381.81;;;6.14;100.00
43707;BME280;61348;53.392;-6.248;2023-12-28T01:25:11;98388.06;;;6.14;100.00
43707;BME280;61348;53.392;-6.248;2023-12-28T01:27:39;98392.38;;;6.12;100.00
43707;BME280;61348;53.392;-6.248;2023-12-28T01:30:07;98386.09;;;6.11;100.00
43707;BME280;61348;53.392;-6.248;2023-12-28T01:32:34;98397.09;;;6.11;100.00
43707;BME280;61348;53.392;-6.248;2023-12-28T01:35:02;98401.34;;;6.09;100.00
43707;BME280;61348;53.392;-6.248;2023-12-28T01:37:29;98415.88;;;6.09;100.00
43707;BME280;61348;53.392;-6.248;2023-12-28T01:40:00;98419.81;;;6.08;100.00
43707;BME280;61348;53.392;-6.248;2023-12-28T01:42:27;98419.41;;;6.10;100.00
43707;BME280;61348;53.392;-6.248;2023-12-28T01:44:57;98414.34;;;6.12;100.00
43707;BME280;61348;53.392;-6.248;2023-12-28T01:47:25;98431.25;;;6.14;100.00
43707;BME280;61348;53.392;-6.248;2023-12-28T01:49:53;98441.88;;;6.16;100.00
43707;BME280;61348;53.392;-6.248;2023-12-28T01:52:21;98452.91;;;6.19;100.00
43707;BME280;61348;53.392;-6.248;2023-12-28T01:54:49;98451.00;;;6.23;100.00
43707;BME280;61348;53.392;-6.248;2023-12-28T01:57:17;98460.84;;;6.28;100.00
43707;BME280;61348;53.392;-6.248;2023-12-28T01:59:45;98470.75;;;6.32;100.00
43707;BME280;61348;53.392;-6.248;2023-12-28T02:02:15;98476.66;;;6.34;100.00
43707;BME280;61348;53.392;-6.248;2023-12-28T02:04:43;98486.53;;;6.39;100.00
43707;BME280;61348;53.392;-6.248;2023-12-28T02:07:10;98482.25;;;6.41;100.00
43707;BME280;61348;53.392;-6.248;2023-12-28T02:09:38;98489.00;;;6.47;100.00
43707;BME280;61348;53.392;-6.248;2023-12-28T02:12:07;98487.09;;;6.51;100.00
43707;BME280;61348;53.392;-6.248;2023-12-28T02:14:34;98504.03;;;6.53;100.00
43707;BME280;61348;53.392;-6.248;2023-12-28T02:19:50;98506.78;;;6.53;100.00
43707;BME280;61348;53.392;-6.248;2023-12-28T02:22:18;98508.31;;;6.51;100.00
43707;BME280;61348;53.392;-6.248;2023-12-28T02:27:22;98523.94;;;6.47;100.00
43707;BME280;61348;53.392;-6.248;2023-12-28T02:29:49;98530.63;;;6.46;100.00
43707;BME280;61348;53.392;-6.248;2023-12-28T02:32:22;98534.13;;;6.46;100.00
43707;BME280;61348;53.392;-6.248;2023-12-28T02:34:56;98550.63;;;6.46;100.00
43707;BME280;61348;53.392;-6.248;2023-12-28T02:37:25;98546.72;;;6.47;100.00
43707;BME280;61348;53.392;-6.248;2023-12-28T02:39:53;98560.47;;;6.47;100.00
43707;BME280;61348;53.392;-6.248;2023-12-28T02:42:21;98571.88;;;6.49;100.00
43707;BME280;61348;53.392;-6.248;2023-12-28T02:44:50;98574.28;;;6.51;100.00
43707;BME280;61348;53.392;-6.248;2023-12-28T02:47:17;98584.47;;;6.50;100.00
43707;BME280;61348;53.392;-6.248;2023-12-28T02:49:44;98575.81;;;6.48;100.00
43707;BME280;61348;53.392;-6.248;2023-12-28T02:52:12;98562.06;;;6.48;100.00
43707;BME280;61348;53.392;-6.248;2023-12-28T02:54:39;98586.44;;;6.50;100.00
43707;BME280;61348;53.392;-6.248;2023-12-28T02:57:06;98588.44;;;6.53;100.00
43707;BME280;61348;53.392;-6.248;2023-12-28T02:59:34;98585.69;;;6.53;100.00
43707;BME280;61348;53.392;-6.248;2023-12-28T03:02:01;98591.97;;;6.53;100.00
43707;BME280;61348;53.392;-6.248;2023-12-28T03:04:28;98583.75;;;6.57;100.00
43707;BME280;61348;53.392;-6.248;2023-12-28T03:06:56;98590.47;;;6.59;100.00
43707;BME280;61348;53.392;-6.248;2023-12-28T03:09:23;98596.84;;;6.63;100.00
43707;BME280;61348;53.392;-6.248;2023-12-28T03:11:51;98598.06;;;6.66;100.00
43707;BME280;61348;53.392;-6.248;2023-12-28T03:14:18;98596.50;;;6.68;100.00
43707;BME280;61348;53.392;-6.248;2023-12-28T03:16:45;98599.69;;;6.70;100.00
43707;BME280;61348;53.392;-6.248;2023-12-28T03:19:13;98587.13;;;6.69;100.00
43707;BME280;61348;53.392;-6.248;2023-12-28T03:21:40;98582.75;;;6.68;100.00
43707;BME280;61348;53.392;-6.248;2023-12-28T03:24:08;98576.47;;;6.68;100.00
43707;BME280;61348;53.392;-6.248;2023-12-28T03:26:38;98593.34;;;6.66;100.00
43707;BME280;61348;53.392;-6.248;2023-12-28T03:29:07;98580.75;;;6.65;100.00
43707;BME280;61348;53.392;-6.248;2023-12-28T03:31:39;98578.75;;;6.62;100.00
43707;BME280;61348;53.392;-6.248;2023-12-28T03:34:07;98583.44;;;6.62;100.00
43707;BME280;61348;53.392;-6.248;2023-12-28T03:36:34;98576.78;;;6.63;100.00
43707;BME280;61348;53.392;-6.248;2023-12-28T03:39:01;98578.00;;;6.65;100.00
43707;BME280;61348;53.392;-6.248;2023-12-28T03:41:30;98579.59;;;6.66;100.00
43707;BME280;61348;53.392;-6.248;2023-12-28T03:43:58;98587.13;;;6.69;100.00
43707;BME280;61348;53.392;-6.248;2023-12-28T03:46:25;98599.69;;;6.70;100.00
43707;BME280;61348;53.392;-6.248;2023-12-28T03:48:53;98594.66;;;6.76;100.00
43707;BME280;61348;53.392;-6.248;2023-12-28T03:51:21;98595.06;;;6.78;100.00
43707;BME280;61348;53.392;-6.248;2023-12-28T03:53:48;98571.13;;;6.79;100.00
43707;BME280;61348;53.392;-6.248;2023-12-28T03:56:26;98577.41;;;6.79;100.00
43707;BME280;61348;53.392;-6.248;2023-12-28T03:58:54;98578.56;;;6.78;100.00
43707;BME280;61348;53.392;-6.248;2023-12-28T04:01:22;98600.56;;;6.78;100.00
43707;BME280;61348;53.392;-6.248;2023-12-28T04:03:49;98590.38;;;6.79;100.00
43707;BME280;61348;53.392;-6.248;2023-12-28T04:06:17;98594.31;;;6.81;100.00
43707;BME280;61348;53.392;-6.248;2023-12-28T04:08:44;98602.22;;;6.83;100.00
43707;BME280;61348;53.392;-6.248;2023-12-28T04:11:11;98614.78;;;6.84;100.00
43707;BME280;61348;53.392;-6.248;2023-12-28T04:13:39;98607.75;;;6.86;100.00
43707;BME280;61348;53.392;-6.248;2023-12-28T04:16:06;98604.66;;;6.88;100.00
43707;BME280;61348;53.392;-6.248;2023-12-28T04:18:34;98592.47;;;6.89;100.00
43707;BME280;61348;53.392;-6.248;2023-12-28T04:21:01;98588.56;;;6.90;100.00
43707;BME280;61348;53.392;-6.248;2023-12-28T04:23:29;98602.31;;;6.90;100.00
43707;BME280;61348;53.392;-6.248;2023-12-28T04:25:58;98611.72;;;6.89;100.00
43707;BME280;61348;53.392;-6.248;2023-12-28T04:28:25;98610.56;;;6.90;100.00
43707;BME280;61348;53.392;-6.248;2023-12-28T04:30:52;98602.31;;;6.90;100.00
43707;BME280;61348;53.392;-6.248;2023-12-28T04:33:20;98591.31;;;6.90;100.00
43707;BME280;61348;53.392;-6.248;2023-12-28T04:35:47;98586.59;;;6.90;100.00
43707;BME280;61348;53.392;-6.248;2023-12-28T04:38:16;98600.34;;;6.90;100.00
43707;BME280;61348;53.392;-6.248;2023-12-28T04:40:43;98607.41;;;6.88;100.00
43707;BME280;61348;53.392;-6.248;2023-12-28T04:43:10;98599.56;;;6.90;100.00
43707;BME280;61348;53.392;-6.248;2023-12-28T04:45:38;98603.91;;;6.91;100.00
43707;BME280;61348;53.392;-6.248;2023-12-28T04:48:05;98615.66;;;6.91;100.00
43707;BME280;61348;53.392;-6.248;2023-12-28T04:50:33;98600.38;;;6.94;100.00
43707;BME280;61348;53.392;-6.248;2023-12-28T04:53:03;98599.22;;;6.95;100.00
43707;BME280;61348;53.392;-6.248;2023-12-28T04:55:30;98601.97;;;6.95;100.00
43707;BME280;61348;53.392;-6.248;2023-12-28T04:57:57;98615.72;;;6.95;100.00
43707;BME280;61348;53.392;-6.248;2023-12-28T05:00:25;98621.22;;;6.95;100.00
43707;BME280;61348;53.392;-6.248;2023-12-28T05:02:52;98604.72;;;6.95;100.00
43707;BME280;61348;53.392;-6.248;2023-12-28T05:05:21;98613.38;;;6.97;100.00
43707;BME280;61348;53.392;-6.248;2023-12-28T05:07:48;98621.28;;;6.98;100.00
43707;BME280;61348;53.392;-6.248;2023-12-28T05:10:16;98626.00;;;6.98;100.00
43707;BME280;61348;53.392;-6.248;2023-12-28T05:12:45;98637.00;;;6.98;100.00
43707;BME280;61348;53.392;-6.248;2023-12-28T05:15:12;98634.66;;;7.00;100.00
43707;BME280;61348;53.392;-6.248;2023-12-28T05:17:40;98639.41;;;7.03;100.00
43707;BME280;61348;53.392;-6.248;2023-12-28T05:20:08;98639.41;;;7.03;100.00
43707;BME280;61348;53.392;-6.248;2023-12-28T05:22:36;98637.88;;;7.05;100.00
43707;BME280;61348;53.392;-6.248;2023-12-28T05:25:03;98658.75;;;7.06;100.00
43707;BME280;61348;53.392;-6.248;2023-12-28T05:27:32;98644.25;;;7.09;100.00
43707;BME280;61348;53.392;-6.248;2023-12-28T05:29:59;98645.81;;;7.10;100.00
43707;BME280;61348;53.392;-6.248;2023-12-28T05:32:26;98628.50;;;7.10;100.00
43707;BME280;61348;53.392;-6.248;2023-12-28T05:34:54;98624.91;;;7.06;100.00
43707;BME280;61348;53.392;-6.248;2023-12-28T05:37:21;98627.63;;;7.02;100.00
43707;BME280;61348;53.392;-6.248;2023-12-28T05:39:48;98616.59;;;6.99;100.00
43707;BME280;61348;53.392;-6.248;2023-12-28T05:42:16;98632.22;;;6.95;100.00
43707;BME280;61348;53.392;-6.248;2023-12-28T05:44:44;98628.22;;;6.89;100.00
43707;BME280;61348;53.392;-6.248;2023-12-28T05:47:13;98626.59;;;6.84;100.00
43707;BME280;61348;53.392;-6.248;2023-12-28T05:49:40;98628.13;;;6.82;100.00
43707;BME280;61348;53.392;-6.248;2023-12-28T05:52:07;98631.19;;;6.77;100.00
43707;BME280;61348;53.392;-6.248;2023-12-28T05:54:35;98636.28;;;6.74;100.00
43707;BME280;61348;53.392;-6.248;2023-12-28T05:57:02;98660.16;;;6.70;100.00
43707;BME280;61348;53.392;-6.248;2023-12-28T05:59:30;98640.50;;;6.68;100.00
43707;BME280;61348;53.392;-6.248;2023-12-28T06:01:59;98656.59;;;6.66;100.00
43707;BME280;61348;53.392;-6.248;2023-12-28T06:04:26;98656.16;;;6.64;100.00
43707;BME280;61348;53.392;-6.248;2023-12-28T06:06:54;98645.13;;;6.61;100.00
43707;BME280;61348;53.392;-6.248;2023-12-28T06:09:21;98644.69;;;6.59;100.00
43707;BME280;61348;53.392;-6.248;2023-12-28T06:11:48;98648.97;;;6.56;100.00
43707;BME280;61348;53.392;-6.248;2023-12-28T06:14:16;98645.78;;;6.54;100.00
43707;BME280;61348;53.392;-6.248;2023-12-28T06:16:43;98641.47;;;6.53;100.00
43707;BME280;61348;53.392;-6.248;2023-12-28T06:19:10;98643.03;;;6.54;100.00
43707;BME280;61348;53.392;-6.248;2023-12-28T06:21:39;98634.38;;;6.52;100.00
43707;BME280;61348;53.392;-6.248;2023-12-28T06:24:09;98635.53;;;6.51;100.00
43707;BME280;61348;53.392;-6.248;2023-12-28T06:26:43;98643.00;;;6.51;100.00
43707;BME280;61348;53.392;-6.248;2023-12-28T06:29:11;98630.03;;;6.51;100.00
43707;BME280;61348;53.392;-6.248;2023-12-28T06:31:39;98632.34;;;6.49;100.00
43707;BME280;61348;53.392;-6.248;2023-12-28T06:34:07;98632.34;;;6.49;100.00
43707;BME280;61348;53.392;-6.248;2023-12-28T06:36:35;98635.47;;;6.48;100.00
43707;BME280;61348;53.392;-6.248;2023-12-28T06:39:03;98630.34;;;6.46;100.00
43707;BME280;61348;53.392;-6.248;2023-12-28T06:41:30;98629.56;;;6.46;100.00
43707;BME280;61348;53.392;-6.248;2023-12-28T06:43:58;98633.06;;;6.43;100.00
43707;BME280;61348;53.392;-6.248;2023-12-28T06:46:25;98622.41;;;6.41;100.00
43707;BME280;61348;53.392;-6.248;2023-12-28T06:48:52;98623.59;;;6.40;100.00
43707;BME280;61348;53.392;-6.248;2023-12-28T06:51:20;98625.13;;;6.38;100.00
43707;BME280;61348;53.392;-6.248;2023-12-28T06:53:49;98625.91;;;6.38;100.00
43707;BME280;61348;53.392;-6.248;2023-12-28T06:56:18;98623.16;;;6.38;100.00
43707;BME280;61348;53.392;-6.248;2023-12-28T06:58:46;98617.66;;;6.38;100.00
43707;BME280;61348;53.392;-6.248;2023-12-28T07:01:13;98610.59;;;6.37;100.00
43707;BME280;61348;53.392;-6.248;2023-12-28T07:03:40;98597.63;;;6.38;100.00
43707;BME280;61348;53.392;-6.248;2023-12-28T07:06:08;98610.59;;;6.37;100.00
43707;BME280;61348;53.392;-6.248;2023-12-28T07:08:36;98612.91;;;6.35;100.00
43707;BME280;61348;53.392;-6.248;2023-12-28T07:11:04;98610.16;;;6.35;100.00
43707;BME280;61348;53.392;-6.248;2023-12-28T07:13:32;98614.88;;;6.35;100.00
43707;BME280;61348;53.392;-6.248;2023-12-28T07:15:59;98603.88;;;6.35;100.00
43707;BME280;61348;53.392;-6.248;2023-12-28T07:18:28;98605.81;;;6.34;100.00
43707;BME280;61348;53.392;-6.248;2023-12-28T07:20:56;98601.47;;;6.33;100.00
43707;BME280;61348;53.392;-6.248;2023-12-28T07:23:23;98581.81;;;6.31;100.00
43707;BME280;61348;53.392;-6.248;2023-12-28T07:25:51;98600.72;;;6.33;100.00
43707;BME280;61348;53.392;-6.248;2023-12-28T07:28:19;98591.28;;;6.34;100.00
43707;BME280;61348;53.392;-6.248;2023-12-28T07:30:47;98585.78;;;6.34;100.00
43707;BME280;61348;53.392;-6.248;2023-12-28T07:33:15;98572.03;;;6.34;100.00
43707;BME280;61348;53.392;-6.248;2023-12-28T07:35:42;98558.72;;;6.36;100.00
43707;BME280;61348;53.392;-6.248;2023-12-28T07:38:10;98564.28;;;6.39;100.00
43707;BME280;61348;53.392;-6.248;2023-12-28T07:40:37;98563.91;;;6.41;100.00
43707;BME280;61348;53.392;-6.248;2023-12-28T07:43:05;98572.19;;;6.44;100.00
43707;BME280;61348;53.392;-6.248;2023-12-28T07:45:32;98570.31;;;6.48;100.00
43707;BME280;61348;53.392;-6.248;2023-12-28T07:48:00;98575.03;;;6.51;100.00
43707;BME280;61348;53.392;-6.248;2023-12-28T07:50:28;98573.16;;;6.55;100.00
43707;BME280;61348;53.392;-6.248;2023-12-28T07:52:55;98566.50;;;6.56;100.00
43707;BME280;61348;53.392;-6.248;2023-12-28T07:55:22;98557.13;;;6.61;100.00
43707;BME280;61348;53.392;-6.248;2023-12-28T07:57:50;98544.22;;;6.65;100.00
43707;BME280;61348;53.392;-6.248;2023-12-28T08:00:17;98553.31;;;6.69;100.00
43707;BME280;61348;53.392;-6.248;2023-12-28T08:02:45;98536.44;;;6.70;100.00
43707;BME280;61348;53.392;-6.248;2023-12-28T08:05:12;98524.69;;;6.73;100.00
43707;BME280;61348;53.392;-6.248;2023-12-28T08:07:39;98521.94;;;6.73;100.00
43707;BME280;61348;53.392;-6.248;2023-12-28T08:10:07;98534.94;;;6.77;100.00
43707;BME280;61348;53.392;-6.248;2023-12-28T08:12:35;98520.03;;;6.78;100.00
43707;BME280;61348;53.392;-6.248;2023-12-28T08:15:02;98541.72;;;6.83;100.00
43707;BME280;61348;53.392;-6.248;2023-12-28T08:17:30;98540.59;;;6.87;100.00
43707;BME280;61348;53.392;-6.248;2023-12-28T08:19:57;98528.03;;;6.90;100.00
43707;BME280;61348;53.392;-6.248;2023-12-28T08:22:24;98522.94;;;6.92;100.00
43707;BME280;61348;53.392;-6.248;2023-12-28T08:24:52;98511.94;;;6.92;100.00
43707;BME280;61348;53.392;-6.248;2023-12-28T08:27:19;98499.00;;;6.92;100.00
43707;BME280;61348;53.392;-6.248;2023-12-28T08:29:48;98504.09;;;6.94;100.00
43707;BME280;61348;53.392;-6.248;2023-12-28T08:32:15;98505.69;;;6.95;100.00
43707;BME280;61348;53.392;-6.248;2023-12-28T08:34:44;98508.44;;;6.95;100.00
43707;BME280;61348;53.392;-6.248;2023-12-28T08:37:13;98499.44;;;6.98;100.00
43707;BME280;61348;53.392;-6.248;2023-12-28T08:39:41;98509.31;;;6.99;100.00
43707;BME280;61348;53.392;-6.248;2023-12-28T08:42:08;98511.66;;;7.00;100.00
43707;BME280;61348;53.392;-6.248;2023-12-28T08:44:35;98510.91;;;7.03;100.00
43707;BME280;61348;53.392;-6.248;2023-12-28T08:47:04;98499.53;;;7.05;100.00
43707;BME280;61348;53.392;-6.248;2023-12-28T08:49:31;98498.78;;;7.08;100.00
43707;BME280;61348;53.392;-6.248;2023-12-28T08:52:00;98511.38;;;7.09;100.00
43707;BME280;61348;53.392;-6.248;2023-12-28T08:54:28;98508.28;;;7.14;100.00
43707;BME280;61348;53.392;-6.248;2023-12-28T08:56:56;98510.69;;;7.19;100.00
43707;BME280;61348;53.392;-6.248;2023-12-28T08:59:26;98509.19;;;7.25;100.00
43707;BME280;61348;53.392;-6.248;2023-12-28T09:01:54;98506.91;;;7.30;100.00
43707;BME280;61348;53.392;-6.248;2023-12-28T09:04:22;98502.25;;;7.38;100.00
43707;BME280;61348;53.392;-6.248;2023-12-28T09:06:50;98487.38;;;7.46;100.00
43707;BME280;61348;53.392;-6.248;2023-12-28T09:09:18;98487.03;;;7.51;100.00
43707;BME280;61348;53.392;-6.248;2023-12-28T09:11:45;98487.44;;;7.53;100.00
43707;BME280;61348;53.392;-6.248;2023-12-28T09:14:13;98501.66;;;7.59;100.00
43707;BME280;61348;53.392;-6.248;2023-12-28T09:16:40;98486.72;;;7.63;100.00
43707;BME280;61348;53.392;-6.248;2023-12-28T09:19:09;98506.47;;;7.69;100.00
43707;BME280;61348;53.392;-6.248;2023-12-28T09:21:36;98493.13;;;7.74;100.00
43707;BME280;61348;53.392;-6.248;2023-12-28T09:24:04;98512.91;;;7.83;100.00
43707;BME280;61348;53.392;-6.248;2023-12-28T09:26:33;98510.19;;;7.90;100.00
43707;BME280;61348;53.392;-6.248;2023-12-28T09:29:00;98503.91;;;7.93;100.00
43707;BME280;61348;53.392;-6.248;2023-12-28T09:31:27;98506.69;;;7.97;100.00
43707;BME280;61348;53.392;-6.248;2023-12-28T09:33:55;98505.47;;;7.94;100.00
43707;BME280;61348;53.392;-6.248;2023-12-28T09:36:22;98486.97;;;7.91;100.00
43707;BME280;61348;53.392;-6.248;2023-12-28T09:38:50;98481.81;;;7.86;100.00
43707;BME280;61348;53.392;-6.248;2023-12-28T09:41:21;98498.31;;;7.83;100.00
43707;BME280;61348;53.392;-6.248;2023-12-28T09:46:41;98486.09;;;7.80;100.00
43707;BME280;61348;53.392;-6.248;2023-12-28T09:49:10;98465.63;;;7.81;100.00
43707;BME280;61348;53.392;-6.248;2023-12-28T09:51:38;98499.47;;;7.82;100.00
43707;BME280;61348;53.392;-6.248;2023-12-28T09:54:06;98518.00;;;7.85;100.00
43707;BME280;61348;53.392;-6.248;2023-12-28T09:56:34;98507.00;;;7.85;100.00
43707;BME280;61348;53.392;-6.248;2023-12-28T09:59:02;98523.53;;;7.85;100.00
43707;BME280;61348;53.392;-6.248;2023-12-28T10:01:31;98513.25;;;7.82;100.00
43707;BME280;61348;53.392;-6.248;2023-12-28T10:03:59;98535.69;;;7.80;100.00
43707;BME280;61348;53.392;-6.248;2023-12-28T10:06:26;98531.34;;;7.79;100.00
43707;BME280;61348;53.392;-6.248;2023-12-28T10:08:53;98530.94;;;7.77;100.00
43707;BME280;61348;53.392;-6.248;2023-12-28T10:11:22;98533.28;;;7.75;100.00
43707;BME280;61348;53.392;-6.248;2023-12-28T10:13:51;98541.13;;;7.73;100.00
43707;BME280;61348;53.392;-6.248;2023-12-28T10:16:18;98532.84;;;7.73;100.00
43707;BME280;61348;53.392;-6.248;2023-12-28T10:18:45;98552.13;;;7.73;100.00
43707;BME280;61348;53.392;-6.248;2023-12-28T10:21:13;98550.16;;;7.70;100.00
43707;BME280;61348;53.392;-6.248;2023-12-28T10:23:40;98576.47;;;7.68;100.00
43707;BME280;61348;53.392;-6.248;2023-12-28T10:26:08;98572.94;;;7.67;100.00
43707;BME280;61348;53.392;-6.248;2023-12-28T10:28:36;98581.56;;;7.66;100.00
43707;BME280;61348;53.392;-6.248;2023-12-28T10:31:08;98589.81;;;7.62;100.00
43707;BME280;61348;53.392;-6.248;2023-12-28T10:33:37;98593.72;;;7.61;100.00
43707;BME280;61348;53.392;-6.248;2023-12-28T10:36:08;98596.06;;;7.59;100.00
43707;BME280;61348;53.392;-6.248;2023-12-28T10:38:37;98597.63;;;7.57;100.00
43707;BME280;61348;53.392;-6.248;2023-12-28T10:41:08;98587.38;;;7.57;100.00
43707;BME280;61348;53.392;-6.248;2023-12-28T10:44:05;98598.38;;;7.57;100.00
43707;BME280;61348;53.392;-6.248;2023-12-28T10:46:40;98592.47;;;7.55;100.00
43707;BME280;61348;53.392;-6.248;2023-12-28T10:49:16;98605.09;;;7.56;100.00
43707;BME280;61348;53.392;-6.248;2023-12-28T10:51:45;98603.91;;;7.57;100.00
43707;BME280;61348;53.392;-6.248;2023-12-28T10:54:28;98612.59;;;7.59;100.00
43707;BME280;61348;53.392;-6.248;2023-12-28T11:02:28;98612.66;;;7.66;100.00
43707;BME280;61348;53.392;-6.248;2023-12-28T11:05:00;98612.31;;;7.71;100.00
43707;BME280;61348;53.392;-6.248;2023-12-28T11:07:29;98611.25;;;7.83;100.00
43707;BME280;61348;53.392;-6.248;2023-12-28T11:10:00;98608.22;;;7.91;100.00
43707;BME280;61348;53.392;-6.248;2023-12-28T11:12:29;98617.69;;;7.97;100.00
43707;BME280;61348;53.392;-6.248;2023-12-28T11:14:57;98618.19;;;8.07;100.00
43707;BME280;61348;53.392;-6.248;2023-12-28T11:17:24;98621.00;;;8.14;100.00
43707;BME280;61348;53.392;-6.248;2023-12-28T11:19:53;98616.31;;;8.21;99.96
43707;BME280;61348;53.392;-6.248;2023-12-28T11:22:22;98625.06;;;8.27;99.89
43707;BME280;61348;53.392;-6.248;2023-12-28T11:24:53;98625.47;;;8.29;99.58
43707;BME280;61348;53.392;-6.248;2023-12-28T11:27:22;98627.47;;;8.32;99.49
43707;BME280;61348;53.392;-6.248;2023-12-28T11:29:51;98640.09;;;8.33;99.65
43707;BME280;61348;53.392;-6.248;2023-12-28T11:32:19;98632.97;;;8.32;99.58
43707;BME280;61348;53.392;-6.248;2023-12-28T11:34:56;98629.75;;;8.26;99.40
43707;BME280;61348;53.392;-6.248;2023-12-28T11:37:26;98645.53;;;8.26;99.38
43707;BME280;61348;53.392;-6.248;2023-12-28T11:39:53;98632.19;;;8.28;99.62
43707;BME280;61348;53.392;-6.248;2023-12-28T11:42:23;98640.00;;;8.26;99.30
43707;BME280;61348;53.392;-6.248;2023-12-28T11:44:56;98650.94;;;8.19;99.13
43707;BME280;61348;53.392;-6.248;2023-12-28T11:47:25;98645.00;;;8.13;98.96
43707;BME280;61348;53.392;-6.248;2023-12-28T11:49:54;98646.94;;;8.09;98.93
43707;BME280;61348;53.392;-6.248;2023-12-28T11:52:29;98644.94;;;8.06;99.06
43707;BME280;61348;53.392;-6.248;2023-12-28T11:54:59;98640.97;;;8.04;98.81
43707;BME280;61348;53.392;-6.248;2023-12-28T11:57:29;98642.13;;;7.99;99.08
43707;BME280;61348;53.392;-6.248;2023-12-28T11:59:58;98659.81;;;7.98;99.13
43707;BME280;61348;53.392;-6.248;2023-12-28T12:02:26;98655.50;;;8.01;99.19
43707;BME280;61348;53.392;-6.248;2023-12-28T12:04:54;98659.88;;;8.02;99.08
43707;BME280;61348;53.392;-6.248;2023-12-28T12:07:24;98666.19;;;8.06;99.33
43707;BME280;61348;53.392;-6.248;2023-12-28T12:09:58;98669.00;;;8.09;99.21
43707;BME280;61348;53.392;-6.248;2023-12-28T12:12:29;98673.69;;;8.09;99.02
43707;BME280;61348;53.392;-6.248;2023-12-28T12:14:56;98672.09;;;8.04;98.91
43707;BME280;61348;53.392;-6.248;2023-12-28T12:17:25;98666.13;;;7.98;98.94
43707;BME280;61348;53.392;-6.248;2023-12-28T12:19:54;98672.78;;;7.94;99.09
43707;BME280;61348;53.392;-6.248;2023-12-28T12:22:23;98679.84;;;7.91;99.20
43707;BME280;61348;53.392;-6.248;2023-12-28T12:24:56;98679.03;;;7.91;99.30
43707;BME280;61348;53.392;-6.248;2023-12-28T12:27:25;98685.00;;;7.96;99.55
43707;BME280;61348;53.392;-6.248;2023-12-28T12:29:52;98683.47;;;7.99;99.55
43707;BME280;61348;53.392;-6.248;2023-12-28T12:32:20;98671.63;;;7.98;99.29
43707;BME280;61348;53.392;-6.248;2023-12-28T12:34:49;98675.22;;;8.03;99.36
43707;BME280;61348;53.392;-6.248;2023-12-28T12:37:18;98685.88;;;8.08;99.55
43707;BME280;61348;53.392;-6.248;2023-12-28T12:39:45;98663.53;;;8.13;99.46
43707;BME280;61348;53.392;-6.248;2023-12-28T12:42:13;98687.53;;;8.16;99.40
43707;BME280;61348;53.392;-6.248;2023-12-28T12:44:41;98682.47;;;8.18;99.21
43707;BME280;61348;53.392;-6.248;2023-12-28T12:47:08;98667.13;;;8.20;99.08
43707;BME280;61348;53.392;-6.248;2023-12-28T12:49:36;98675.41;;;8.24;99.15
43707;BME280;61348;53.392;-6.248;2023-12-28T12:52:07;98680.94;;;8.24;98.90
43707;BME280;61348;53.392;-6.248;2023-12-28T12:54:35;98679.75;;;8.25;98.98
43707;BME280;61348;53.392;-6.248;2023-12-28T12:57:03;98685.66;;;8.23;98.71
43707;BME280;61348;53.392;-6.248;2023-12-28T12:59:30;98691.22;;;8.27;99.04
43707;BME280;61348;53.392;-6.248;2023-12-28T13:01:58;98690.47;;;8.30;98.87
43707;BME280;61348;53.392;-6.248;2023-12-28T13:04:27;98707.06;;;8.33;99.02
43707;BME280;61348;53.392;-6.248;2023-12-28T13:06:54;98692.13;;;8.38;99.12
43707;BME280;61348;53.392;-6.248;2023-12-28T13:09:23;98692.94;;;8.42;98.97
43707;BME280;61348;53.392;-6.248;2023-12-28T13:11:50;98689.00;;;8.43;98.83